HLE72 EGCB-EGCB
Flight info
| Callsign | HLE72 |
|---|---|
| Flight time | 0h 4m |
| Altitude | 3000 |
| Route | HELIMED OPS |
| Aircraft | H145/L-SDFGRY/C |
Departure
| Time | 2026-05-06 15:50 |
|---|---|
| Airport | Manchester Barton Aerodrome (EGCB) |
Arrival
| Time | 2026-05-06 15:55 |
|---|---|
| Airport | Manchester Barton Aerodrome (EGCB) |
| Time | Latitude | Longitude | Altitude | Speed | Heading |
|---|---|---|---|---|---|
| 2026-05-06 15:48 | 53.46806 | -2.39303 | 72 ft | 0 kts | 303° |
| 2026-05-06 15:49 | 53.46807 | -2.39309 | 152 ft | 1 kts | 342° |
| 2026-05-06 15:50 | 53.46803 | -2.39280 | 313 ft | 2 kts | 336° |
| 2026-05-06 15:50 | 53.46813 | -2.39273 | 547 ft | 3 kts | 334° |
| 2026-05-06 15:50 | 53.46848 | -2.39307 | 776 ft | 19 kts | 334° |
| 2026-05-06 15:50 | 53.47278 | -2.39557 | 839 ft | 98 kts | 343° |
| 2026-05-06 15:51 | 53.47919 | -2.40095 | 1033 ft | 114 kts | 332° |
| 2026-05-06 15:51 | 53.48679 | -2.40746 | 1054 ft | 130 kts | 334° |
| 2026-05-06 15:51 | 53.49540 | -2.41385 | 1046 ft | 139 kts | 336° |
| 2026-05-06 15:51 | 53.50454 | -2.42039 | 957 ft | 146 kts | 338° |
| 2026-05-06 15:52 | 53.51384 | -2.42685 | 984 ft | 142 kts | 339° |
| 2026-05-06 15:52 | 53.52287 | -2.43296 | 1003 ft | 138 kts | 340° |
| 2026-05-06 15:52 | 53.53164 | -2.43884 | 1127 ft | 133 kts | 340° |
| 2026-05-06 15:52 | 53.54013 | -2.44420 | 1264 ft | 131 kts | 343° |
| 2026-05-06 15:53 | 53.54859 | -2.44949 | 1404 ft | 128 kts | 340° |
| 2026-05-06 15:53 | 53.55614 | -2.45720 | 1579 ft | 126 kts | 328° |
| 2026-05-06 15:53 | 53.56292 | -2.46615 | 1636 ft | 116 kts | 328° |
| 2026-05-06 15:53 | 53.56972 | -2.47027 | 1515 ft | 96 kts | 9° |
| 2026-05-06 15:54 | 53.57540 | -2.46722 | 1430 ft | 81 kts | 25° |
| 2026-05-06 15:54 | 53.58068 | -2.46484 | 1237 ft | 77 kts | 16° |
| 2026-05-06 15:54 | 53.58583 | -2.46542 | 1048 ft | 75 kts | 333° |
| 2026-05-06 15:54 | 53.58889 | -2.47168 | 945 ft | 63 kts | 298° |
| 2026-05-06 15:55 | 53.58809 | -2.47807 | 843 ft | 59 kts | 236° |
| 2026-05-06 15:55 | 53.58539 | -2.48313 | 792 ft | 52 kts | 232° |
| 2026-05-06 15:55 | 53.58613 | -2.48623 | 751 ft | 17 kts | 3° |
| 2026-05-06 15:55 | 53.58746 | -2.48513 | 684 ft | 25 kts | 29° |
| 2026-05-06 15:56 | 53.58764 | -2.48449 | 585 ft | 4 kts | 58° |
| 2026-05-06 15:56 | 53.58760 | -2.48452 | 582 ft | 1 kts | 55° |
| 2026-05-06 15:56 | 53.58759 | -2.48453 | 577 ft | 0 kts | 53° |
| 2026-05-06 16:07 | 53.58759 | -2.48451 | 580 ft | 1 kts | 49° |
| 2026-05-06 16:07 | 53.58769 | -2.48429 | 756 ft | 7 kts | 50° |
| 2026-05-06 16:07 | 53.58904 | -2.48152 | 1037 ft | 63 kts | 45° |
| 2026-05-06 16:07 | 53.59389 | -2.47839 | 1236 ft | 86 kts | 16° |
| 2026-05-06 16:08 | 53.60028 | -2.47540 | 1469 ft | 93 kts | 14° |
| 2026-05-06 16:08 | 53.60696 | -2.47319 | 1524 ft | 112 kts | 1° |
| 2026-05-06 16:08 | 53.61478 | -2.47319 | 1650 ft | 115 kts | 0° |
| 2026-05-06 16:08 | 53.62281 | -2.47168 | 1706 ft | 124 kts | 16° |
| 2026-05-06 16:09 | 53.63163 | -2.46778 | 1655 ft | 134 kts | 13° |
| 2026-05-06 16:09 | 53.64054 | -2.46489 | 1741 ft | 130 kts | 4° |
| 2026-05-06 16:09 | 53.64959 | -2.46630 | 1771 ft | 132 kts | 356° |
| 2026-05-06 16:09 | 53.65877 | -2.46788 | 1757 ft | 133 kts | 357° |
| 2026-05-06 16:10 | 53.66801 | -2.46923 | 1772 ft | 133 kts | 358° |
| 2026-05-06 16:10 | 53.67718 | -2.47026 | 1745 ft | 135 kts | 359° |
| 2026-05-06 16:10 | 53.68671 | -2.47066 | 1666 ft | 138 kts | 3° |
| 2026-05-06 16:10 | 53.69643 | -2.47049 | 1494 ft | 141 kts | 4° |
| 2026-05-06 16:11 | 53.70613 | -2.46952 | 1307 ft | 136 kts | 11° |
| 2026-05-06 16:11 | 53.71521 | -2.46671 | 1237 ft | 125 kts | 10° |
| 2026-05-06 16:11 | 53.72328 | -2.46552 | 1359 ft | 109 kts | 13° |
| 2026-05-06 16:11 | 53.72945 | -2.46083 | 1308 ft | 89 kts | 42° |
| 2026-05-06 16:12 | 53.73368 | -2.45737 | 1188 ft | 48 kts | 24° |
| 2026-05-06 16:12 | 53.73491 | -2.45761 | 890 ft | 7 kts | 17° |
| 2026-05-06 16:12 | 53.73521 | -2.45761 | 706 ft | 6 kts | 4° |
| 2026-05-06 16:12 | 53.73564 | -2.45774 | 658 ft | 1 kts | 358° |
| 2026-05-06 16:13 | 53.73566 | -2.45776 | 650 ft | 0 kts | 357° |
| 2026-05-06 16:13 | 53.73566 | -2.45775 | 647 ft | 0 kts | 357° |
| 2026-05-06 16:21 | 53.73566 | -2.45776 | 647 ft | 0 kts | 356° |
| 2026-05-06 16:22 | 53.73569 | -2.45772 | 667 ft | 3 kts | 14° |
| 2026-05-06 16:22 | 53.73644 | -2.45445 | 722 ft | 50 kts | 60° |
| 2026-05-06 16:22 | 53.73685 | -2.45279 | 650 ft | 0 kts | 59° |